createdAt,value
2017-06-10T00:00:55.287Z,15.16
2017-06-10T00:03:07.967Z,15.2
2017-06-10T00:03:48.448Z,15.16
2017-06-10T00:04:28.933Z,15.1
2017-06-10T00:05:09.426Z,15.13
2017-06-10T00:05:49.933Z,15.21
2017-06-10T00:06:30.399Z,15.23
2017-06-10T00:07:10.890Z,15.19
2017-06-10T00:07:51.365Z,15.1
2017-06-10T00:10:04.862Z,15.09
2017-06-10T00:10:45.347Z,15.11
2017-06-10T00:11:25.829Z,15.11
2017-06-10T00:12:06.322Z,15.21
2017-06-10T00:12:46.780Z,15.25
2017-06-10T00:13:27.272Z,15.25
2017-06-10T00:14:08.665Z,15.17
2017-06-10T00:14:49.766Z,15.19
2017-06-10T00:15:30.271Z,15.23
2017-06-10T00:16:10.717Z,15.2
2017-06-10T00:16:51.162Z,15.09
2017-06-10T00:17:31.633Z,15.2
2017-06-10T00:18:12.097Z,15.19
2017-06-10T00:18:52.558Z,15.19
2017-06-10T00:21:05.361Z,15.23
2017-06-10T00:21:45.755Z,15.16
2017-06-10T00:22:26.247Z,15.13
2017-06-10T00:23:06.727Z,15.11
2017-06-10T00:23:47.192Z,15.09
2017-06-10T00:24:27.693Z,15.01
2017-06-10T00:26:25.319Z,14.98
2017-06-10T00:27:05.789Z,14.94
2017-06-10T00:27:46.266Z,14.84
2017-06-10T00:28:26.731Z,14.89
2017-06-10T00:29:07.230Z,14.91
2017-06-10T00:29:47.692Z,14.8
2017-06-10T00:30:28.186Z,14.91
2017-06-10T00:31:09.182Z,14.84
2017-06-10T00:31:49.682Z,14.89
2017-06-10T00:32:30.145Z,14.88
2017-06-10T00:33:10.636Z,14.88
2017-06-10T00:33:51.111Z,14.83
2017-06-10T00:34:31.557Z,14.84
2017-06-10T00:35:12.005Z,14.89
2017-06-10T00:35:52.454Z,14.99
2017-06-10T00:36:32.894Z,14.94
2017-06-10T00:37:13.328Z,14.86
2017-06-10T00:37:53.767Z,14.95
2017-06-10T00:38:34.237Z,14.8
2017-06-10T00:39:14.680Z,14.92
2017-06-10T00:39:55.103Z,14.96
2017-06-10T00:40:35.550Z,14.89
2017-06-10T00:41:15.991Z,14.96
2017-06-10T00:41:56.445Z,15.06
2017-06-10T00:42:36.951Z,14.99
2017-06-10T00:43:17.497Z,14.99
2017-06-10T00:43:57.982Z,14.99
2017-06-10T00:45:45.553Z,15.07
2017-06-10T00:46:25.972Z,14.96
2017-06-10T00:47:06.448Z,14.98
2017-06-10T00:47:47.748Z,14.99
2017-06-10T00:48:28.187Z,14.99
2017-06-10T00:49:08.665Z,15.01
2017-06-10T00:49:49.115Z,14.94
2017-06-10T00:50:29.557Z,14.99
2017-06-10T00:51:10.039Z,14.91
2017-06-10T00:51:50.442Z,15.03
2017-06-10T00:52:30.886Z,14.98
2017-06-10T00:53:11.344Z,14.96
2017-06-10T00:55:08.997Z,14.98
2017-06-10T00:55:49.483Z,14.99
2017-06-10T00:56:29.945Z,15.01
2017-06-10T00:57:10.434Z,14.95
2017-06-10T00:57:50.912Z,14.96
2017-06-10T00:58:31.409Z,15.03
2017-06-10T00:59:11.859Z,14.88
2017-06-10T00:59:52.335Z,14.89
2017-06-10T01:00:32.817Z,15.01
2017-06-10T01:01:13.290Z,14.94
2017-06-10T01:01:53.788Z,14.94
2017-06-10T01:02:34.215Z,14.88
2017-06-10T01:04:28.207Z,14.91
2017-06-10T01:05:10.422Z,14.86
2017-06-10T01:05:50.861Z,14.91
2017-06-10T01:06:31.315Z,14.8
2017-06-10T01:07:11.725Z,14.83
2017-06-10T01:07:52.243Z,14.84
2017-06-10T01:08:32.644Z,14.83
2017-06-10T01:09:13.093Z,14.72
2017-06-10T01:09:53.546Z,14.68
2017-06-10T01:10:34.003Z,14.75
2017-06-10T01:11:14.443Z,14.73
2017-06-10T01:12:51.805Z,14.73
2017-06-10T01:13:32.271Z,14.68
2017-06-10T01:14:12.771Z,14.69
2017-06-10T01:14:53.243Z,14.62
2017-06-10T01:15:33.673Z,14.62
2017-06-10T01:16:14.112Z,14.61
2017-06-10T01:16:54.588Z,14.61
2017-06-10T01:17:35.069Z,14.62
2017-06-10T01:18:15.526Z,14.6
2017-06-10T01:18:56.001Z,14.51
2017-06-10T01:19:36.484Z,14.6
2017-06-10T01:20:16.962Z,14.47
2017-06-10T01:20:57.447Z,14.5
2017-06-10T01:21:37.875Z,14.52
2017-06-10T01:22:18.342Z,14.55
2017-06-10T01:22:58.795Z,14.45
2017-06-10T01:23:39.266Z,14.54
2017-06-10T01:24:19.747Z,14.52
2017-06-10T01:25:00.228Z,14.46
2017-06-10T01:25:40.667Z,14.45
2017-06-10T01:26:21.131Z,14.46
2017-06-10T01:28:18.777Z,14.51
2017-06-10T01:28:59.262Z,14.46
2017-06-10T01:29:39.753Z,14.46
2017-06-10T01:30:20.241Z,14.54
2017-06-10T01:31:00.714Z,14.51
2017-06-10T01:31:41.209Z,14.57
2017-06-10T01:32:21.682Z,14.54
2017-06-10T01:33:02.149Z,14.57
2017-06-10T01:34:39.512Z,14.57
2017-06-10T01:35:19.959Z,14.6
2017-06-10T01:36:00.437Z,14.61
2017-06-10T01:36:40.912Z,14.6
2017-06-10T01:37:21.384Z,14.5
2017-06-10T01:38:01.866Z,14.64
2017-06-10T01:38:42.332Z,14.61
2017-06-10T01:39:22.830Z,14.62
2017-06-10T01:40:03.303Z,14.6
2017-06-10T01:40:43.773Z,14.62
2017-06-10T01:41:24.236Z,14.68
2017-06-10T01:42:04.666Z,14.61
2017-06-10T01:42:45.127Z,14.55
2017-06-10T01:43:25.593Z,14.6
2017-06-10T01:44:06.042Z,14.57
2017-06-10T01:44:46.484Z,14.64
2017-06-10T01:45:26.928Z,14.62
2017-06-10T01:46:07.412Z,14.5
2017-06-10T01:46:47.853Z,14.64
2017-06-10T01:47:28.307Z,14.64
2017-06-10T01:48:08.764Z,14.58
2017-06-10T01:48:49.228Z,14.64
2017-06-10T01:49:29.706Z,14.65
2017-06-10T01:50:10.196Z,14.61
2017-06-10T01:50:50.694Z,14.65
2017-06-10T01:51:31.156Z,14.68
2017-06-10T01:52:11.623Z,14.62
2017-06-10T01:52:52.099Z,14.69
2017-06-10T01:53:32.549Z,14.7
2017-06-10T01:54:12.985Z,14.61
2017-06-10T01:54:53.448Z,14.65
2017-06-10T01:55:33.876Z,14.69
2017-06-10T01:56:14.372Z,14.65
2017-06-10T01:56:54.787Z,14.62
2017-06-10T01:57:35.277Z,14.7
2017-06-10T01:58:15.719Z,14.69
2017-06-10T01:58:56.153Z,14.68
2017-06-10T01:59:36.578Z,14.69
2017-06-10T02:00:17.037Z,14.65
2017-06-10T02:00:57.512Z,14.62
2017-06-10T02:01:37.971Z,14.65
2017-06-10T02:03:35.617Z,14.69
2017-06-10T02:04:16.109Z,14.75
2017-06-10T02:04:56.581Z,14.61
2017-06-10T02:05:37.067Z,14.65
2017-06-10T02:06:17.565Z,14.69
2017-06-10T02:06:58.053Z,14.61
2017-06-10T02:07:38.628Z,14.64
2017-06-10T02:08:19.121Z,14.55
2017-06-10T02:08:59.599Z,14.61
2017-06-10T02:09:40.085Z,14.62
2017-06-10T02:10:20.575Z,14.68
2017-06-10T02:11:01.790Z,14.62
2017-06-10T02:11:42.258Z,14.75
2017-06-10T02:12:22.804Z,14.62
2017-06-10T02:13:04.156Z,14.65
2017-06-10T02:13:44.650Z,14.61
2017-06-10T02:14:25.123Z,14.64
2017-06-10T02:15:05.592Z,14.62
2017-06-10T02:15:46.058Z,14.64
2017-06-10T02:16:26.547Z,14.6
2017-06-10T02:17:07.821Z,14.69
2017-06-10T02:17:48.281Z,14.65
2017-06-10T02:18:28.768Z,14.61
2017-06-10T02:19:09.278Z,14.7
2017-06-10T02:19:49.754Z,14.68
2017-06-10T02:20:30.246Z,14.62
2017-06-10T02:21:10.744Z,14.62
2017-06-10T02:21:51.235Z,14.72
2017-06-10T02:22:31.727Z,14.62
2017-06-10T02:23:12.214Z,14.65
2017-06-10T02:23:52.682Z,14.69
2017-06-10T02:24:33.161Z,14.61
2017-06-10T02:25:13.635Z,14.62
2017-06-10T02:25:54.164Z,14.65
2017-06-10T02:26:34.602Z,14.62
2017-06-10T02:27:15.075Z,14.62
2017-06-10T02:27:55.546Z,14.61
2017-06-10T02:28:36.890Z,14.64
2017-06-10T02:30:14.221Z,14.62
2017-06-10T02:30:54.702Z,14.64
2017-06-10T02:31:35.178Z,14.6
2017-06-10T02:32:15.662Z,14.61
2017-06-10T02:32:56.157Z,14.6
2017-06-10T02:33:36.630Z,14.57
2017-06-10T02:34:17.104Z,14.6
2017-06-10T02:34:57.593Z,14.61
2017-06-10T02:35:38.077Z,14.65
2017-06-10T02:36:18.552Z,14.61
2017-06-10T02:38:16.185Z,14.54
2017-06-10T02:38:56.652Z,14.62
2017-06-10T02:39:37.147Z,14.65
2017-06-10T02:40:18.188Z,14.65
2017-06-10T02:40:58.680Z,14.61
2017-06-10T02:41:39.139Z,14.61
2017-06-10T02:42:19.604Z,14.62
2017-06-10T02:43:00.102Z,14.61
2017-06-10T02:43:40.569Z,14.68
2017-06-10T02:44:21.061Z,14.64
2017-06-10T02:45:01.537Z,14.64
2017-06-10T02:45:42.041Z,14.69
2017-06-10T02:46:22.500Z,14.64
2017-06-10T02:47:02.963Z,14.64
2017-06-10T02:47:43.443Z,14.6
2017-06-10T02:48:23.876Z,14.7
2017-06-10T02:50:21.514Z,14.7
2017-06-10T02:51:01.967Z,14.61
2017-06-10T02:51:42.451Z,14.69
2017-06-10T02:52:22.942Z,14.65
2017-06-10T02:53:03.414Z,14.62
2017-06-10T02:53:43.901Z,14.62
2017-06-10T02:54:24.364Z,14.6
2017-06-10T02:55:04.868Z,14.68
2017-06-10T02:55:45.343Z,14.58
2017-06-10T02:56:25.807Z,14.55
2017-06-10T02:57:06.297Z,14.64
2017-06-10T02:57:46.790Z,14.57
2017-06-10T02:58:27.271Z,14.57
2017-06-10T02:59:07.753Z,14.64
2017-06-10T02:59:48.236Z,14.62
2017-06-10T03:00:28.688Z,14.61
2017-06-10T03:01:09.150Z,14.58
2017-06-10T03:01:49.608Z,14.6
2017-06-10T03:02:30.062Z,14.58
2017-06-10T03:03:10.512Z,14.57
2017-06-10T03:03:50.955Z,14.68
2017-06-10T03:04:31.391Z,14.57
2017-06-10T03:05:11.853Z,14.65
2017-06-10T03:05:52.299Z,14.61
2017-06-10T03:06:32.738Z,14.6
2017-06-10T03:08:25.288Z,14.62
2017-06-10T03:09:05.760Z,14.61
2017-06-10T03:09:46.243Z,14.62
2017-06-10T03:10:26.722Z,14.62
2017-06-10T03:11:07.220Z,14.61
2017-06-10T03:11:47.696Z,14.57
2017-06-10T03:12:28.169Z,14.65
2017-06-10T03:13:08.653Z,14.7
2017-06-10T03:13:49.174Z,14.65
2017-06-10T03:14:29.645Z,14.7
2017-06-10T03:15:10.137Z,14.7
2017-06-10T03:15:50.620Z,14.68
2017-06-10T03:16:31.074Z,14.62
2017-06-10T03:18:23.618Z,14.65
2017-06-10T03:19:04.092Z,14.64
2017-06-10T03:19:44.546Z,14.64
2017-06-10T03:20:24.987Z,14.64
2017-06-10T03:22:12.448Z,14.65
2017-06-10T03:22:53.840Z,14.65
2017-06-10T03:23:34.324Z,14.62
2017-06-10T03:24:14.807Z,14.61
2017-06-10T03:24:55.299Z,14.6
2017-06-10T03:25:35.736Z,14.68
2017-06-10T03:26:16.187Z,14.62
2017-06-10T03:26:56.621Z,14.65
2017-06-10T03:27:37.081Z,14.58
2017-06-10T03:28:17.551Z,14.6
2017-06-10T03:28:58.015Z,14.62
2017-06-10T03:29:38.478Z,14.6
2017-06-10T03:30:19.757Z,14.69
2017-06-10T03:31:00.219Z,14.68
2017-06-10T03:31:40.690Z,14.64
2017-06-10T03:32:21.123Z,14.61
2017-06-10T03:33:01.586Z,14.64
2017-06-10T03:33:42.035Z,14.62
2017-06-10T03:35:29.498Z,14.6
2017-06-10T03:36:09.960Z,14.61
2017-06-10T03:36:50.433Z,14.68
2017-06-10T03:37:30.913Z,14.64
2017-06-10T03:38:12.052Z,14.62
2017-06-10T03:38:52.528Z,14.57
2017-06-10T03:39:32.985Z,14.61
2017-06-10T03:40:13.459Z,14.55
2017-06-10T03:40:53.969Z,14.55
2017-06-10T03:41:34.437Z,14.57
2017-06-10T03:42:14.905Z,14.61
2017-06-10T03:42:55.338Z,14.68
2017-06-10T03:43:35.801Z,14.55
2017-06-10T03:44:16.270Z,14.55
2017-06-10T03:44:56.719Z,14.54
2017-06-10T03:45:37.197Z,14.57
2017-06-10T03:46:17.659Z,14.61
2017-06-10T03:46:58.158Z,14.61
2017-06-10T03:47:38.633Z,14.6
2017-06-10T03:48:19.124Z,14.65
2017-06-10T03:48:59.624Z,14.65
2017-06-10T03:49:40.082Z,14.57
2017-06-10T03:50:20.531Z,14.62
2017-06-10T03:51:00.974Z,14.61
2017-06-10T03:51:41.407Z,14.65
2017-06-10T03:52:21.867Z,14.62
2017-06-10T03:53:59.222Z,14.64
2017-06-10T03:55:46.670Z,14.61
2017-06-10T03:56:27.111Z,14.61
2017-06-10T03:57:07.585Z,14.61
2017-06-10T03:57:48.088Z,14.69
2017-06-10T03:58:28.553Z,14.68
2017-06-10T03:59:09.031Z,14.6
2017-06-10T03:59:49.515Z,14.7
2017-06-10T04:00:29.969Z,14.62
2017-06-10T04:01:10.456Z,14.64
2017-06-10T04:01:50.959Z,14.6
2017-06-10T04:02:31.418Z,14.62
2017-06-10T04:03:11.904Z,14.65
2017-06-10T04:03:52.398Z,14.64
2017-06-10T04:05:39.891Z,14.69
2017-06-10T04:06:20.321Z,14.69
2017-06-10T04:07:00.798Z,14.69
2017-06-10T04:07:41.274Z,14.57
2017-06-10T04:08:21.741Z,14.6
2017-06-10T04:09:02.236Z,14.55
2017-06-10T04:09:42.731Z,14.46
2017-06-10T04:10:23.205Z,14.5
2017-06-10T04:11:03.639Z,14.43
2017-06-10T04:11:44.085Z,14.37
2017-06-10T04:12:24.562Z,14.39
2017-06-10T04:13:05.050Z,14.35
2017-06-10T04:13:45.529Z,14.39
2017-06-10T04:14:25.996Z,14.36
2017-06-10T04:15:06.481Z,14.28
2017-06-10T04:15:46.920Z,14.29
2017-06-10T04:16:27.386Z,14.33
2017-06-10T04:17:07.868Z,14.43
2017-06-10T04:17:48.331Z,14.4
2017-06-10T04:18:28.816Z,14.45
2017-06-10T04:19:09.292Z,14.42
2017-06-10T04:19:49.766Z,14.4
2017-06-10T04:20:30.247Z,14.37
2017-06-10T04:21:10.718Z,14.4
2017-06-10T04:21:51.182Z,14.35
2017-06-10T04:22:31.615Z,14.45
2017-06-10T04:23:12.070Z,14.43
2017-06-10T04:23:52.535Z,14.46
2017-06-10T04:24:33.004Z,14.39
2017-06-10T04:25:13.501Z,14.47
2017-06-10T04:25:53.979Z,14.46
2017-06-10T04:26:34.472Z,14.46
2017-06-10T04:27:14.965Z,14.47
2017-06-10T04:27:55.438Z,14.54
2017-06-10T04:28:35.894Z,14.52
2017-06-10T04:29:16.368Z,14.5
2017-06-10T04:29:57.713Z,14.52
2017-06-10T04:30:38.157Z,14.58
2017-06-10T04:31:18.646Z,14.64
2017-06-10T04:31:59.144Z,14.58
2017-06-10T04:32:39.625Z,14.65
2017-06-10T04:33:20.077Z,14.68
2017-06-10T04:34:00.535Z,14.72
2017-06-10T04:34:40.992Z,14.75
2017-06-10T04:35:21.463Z,14.86
2017-06-10T04:36:01.899Z,14.98
2017-06-10T04:37:49.350Z,15.13
2017-06-10T04:38:29.811Z,15.17
2017-06-10T04:39:10.284Z,15.29
2017-06-10T04:39:50.760Z,15.29
2017-06-10T04:40:31.247Z,15.34
2017-06-10T04:41:11.772Z,15.57
2017-06-10T04:41:52.203Z,15.76
2017-06-10T04:42:32.683Z,15.78
2017-06-10T04:43:13.169Z,15.97
2017-06-10T04:43:53.687Z,16.09
2017-06-10T04:44:34.143Z,16.2
2017-06-10T04:45:14.613Z,16.31
2017-06-10T04:45:55.071Z,16.53
2017-06-10T04:46:35.530Z,16.66
2017-06-10T04:47:16.020Z,16.73
2017-06-10T04:47:56.479Z,16.94
2017-06-10T04:48:36.939Z,16.97
2017-06-10T04:49:17.376Z,17.01
2017-06-10T04:49:57.825Z,17.15
2017-06-10T04:50:38.310Z,17.19
2017-06-10T04:52:30.860Z,17.28
2017-06-10T04:53:11.297Z,17.48
2017-06-10T04:53:51.762Z,17.56
2017-06-10T04:54:32.227Z,17.71
2017-06-10T04:55:12.670Z,17.89
2017-06-10T04:55:53.129Z,17.9
2017-06-10T04:56:33.586Z,17.87
2017-06-10T04:57:14.061Z,17.96
2017-06-10T04:57:54.539Z,17.97
2017-06-10T04:58:35.024Z,18.15
2017-06-10T04:59:15.506Z,18.32
2017-06-10T04:59:55.997Z,18.41
2017-06-10T05:00:36.478Z,18.35
2017-06-10T05:01:16.933Z,18.5
2017-06-10T05:01:57.441Z,18.67
2017-06-10T05:02:37.914Z,18.57
2017-06-10T05:03:18.376Z,18.51
2017-06-10T05:05:31.141Z,18.81
2017-06-10T05:06:11.593Z,18.82
2017-06-10T05:06:52.092Z,18.84
2017-06-10T05:07:32.581Z,18.85
2017-06-10T05:08:13.054Z,18.82
2017-06-10T05:08:53.535Z,18.85
2017-06-10T05:09:33.994Z,18.91
2017-06-10T05:10:14.432Z,18.95
2017-06-10T05:10:54.889Z,18.82
2017-06-10T05:11:35.355Z,19
2017-06-10T05:12:15.788Z,18.85
2017-06-10T05:12:56.255Z,18.57
2017-06-10T05:13:36.727Z,18.51
2017-06-10T05:14:17.217Z,18.26
2017-06-10T05:14:57.709Z,18.12
2017-06-10T05:15:38.193Z,18.14
2017-06-10T05:16:18.695Z,18.1
2017-06-10T05:16:59.188Z,18.14
2017-06-10T05:17:39.659Z,18.2
2017-06-10T05:18:20.133Z,17.97
2017-06-10T05:19:00.609Z,18.02
2017-06-10T05:19:41.085Z,17.93
2017-06-10T05:20:21.584Z,17.87
2017-06-10T05:21:02.067Z,17.62
2017-06-10T05:21:42.559Z,17.52
2017-06-10T05:22:23.055Z,17.62
2017-06-10T05:23:03.510Z,17.7
2017-06-10T05:23:43.964Z,17.41
2017-06-10T05:24:24.431Z,17.26
2017-06-10T05:26:22.065Z,17.23
2017-06-10T05:27:02.548Z,17.46
2017-06-10T05:27:43.037Z,17.46
2017-06-10T05:28:23.524Z,17.49
2017-06-10T05:29:03.999Z,17.43
2017-06-10T05:29:44.441Z,17.49
2017-06-10T05:30:24.935Z,17.71
2017-06-10T05:31:05.431Z,17.84
2017-06-10T05:31:45.920Z,17.71
2017-06-10T05:32:26.414Z,17.55
2017-06-10T05:33:06.908Z,17.63
2017-06-10T05:33:47.390Z,17.66
2017-06-10T05:34:27.892Z,17.72
2017-06-10T05:35:08.341Z,17.93
2017-06-10T05:35:48.842Z,17.9
2017-06-10T05:36:29.319Z,17.97
2017-06-10T05:38:08.250Z,17.77
2017-06-10T05:38:51.238Z,17.71
2017-06-10T05:39:31.528Z,17.84
2017-06-10T05:40:12.004Z,18
2017-06-10T05:40:52.478Z,17.95
2017-06-10T05:41:32.943Z,17.79
2017-06-10T05:42:13.396Z,17.79
2017-06-10T05:42:53.851Z,17.64
2017-06-10T05:43:34.296Z,17.87
2017-06-10T05:44:14.734Z,17.89
2017-06-10T05:44:55.201Z,17.87
2017-06-10T05:45:35.641Z,17.92
2017-06-10T05:46:16.096Z,18.21
2017-06-10T05:46:56.614Z,18.18
2017-06-10T05:47:37.041Z,18.17
2017-06-10T05:48:17.532Z,18.15
2017-06-10T05:48:57.980Z,18.39
2017-06-10T05:49:38.448Z,18.6
2017-06-10T05:50:18.921Z,18.63
2017-06-10T05:50:59.322Z,18.67
2017-06-10T05:51:39.772Z,18.9
2017-06-10T05:52:20.223Z,19.18
2017-06-10T05:53:00.731Z,19.23
2017-06-10T05:54:53.305Z,19.68
2017-06-10T05:55:33.799Z,19.74
2017-06-10T05:56:14.275Z,19.91
2017-06-10T05:56:54.751Z,20.05
2017-06-10T05:57:35.239Z,20.26
2017-06-10T05:58:15.723Z,20.31
2017-06-10T05:58:56.205Z,20.54
2017-06-10T05:59:36.692Z,20.54
2017-06-10T06:00:17.177Z,20.51
2017-06-10T06:00:57.658Z,20.26
2017-06-10T06:01:38.133Z,20.08
2017-06-10T06:02:18.586Z,19.96
2017-06-10T06:02:59.927Z,20.11
2017-06-10T06:03:40.373Z,20.17
2017-06-10T06:04:20.811Z,20.39
2017-06-10T06:05:01.260Z,20.58
2017-06-10T06:05:41.700Z,20.7
2017-06-10T06:07:54.505Z,20.66
2017-06-10T06:08:34.923Z,20.39
2017-06-10T06:09:15.410Z,20.08
2017-06-10T06:09:55.855Z,19.76
2017-06-10T06:10:36.332Z,19.66
2017-06-10T06:11:16.819Z,19.96
2017-06-10T06:11:57.305Z,20.24
2017-06-10T06:12:37.774Z,20.59
2017-06-10T06:13:18.249Z,20.94
2017-06-10T06:13:58.728Z,21.09
2017-06-10T06:14:39.164Z,21.06
2017-06-10T06:16:36.814Z,20.43
2017-06-10T06:17:17.297Z,20.52
2017-06-10T06:17:57.763Z,20.57
2017-06-10T06:18:38.247Z,20.61
2017-06-10T06:19:18.762Z,20.59
2017-06-10T06:19:59.255Z,20.55
2017-06-10T06:20:39.742Z,20.57
2017-06-10T06:21:20.263Z,20.57
2017-06-10T06:22:00.711Z,20.62
2017-06-10T06:22:41.185Z,20.42
2017-06-10T06:23:21.678Z,20.39
2017-06-10T06:24:02.193Z,20.5
2017-06-10T06:24:42.670Z,20.24
2017-06-10T06:25:23.154Z,20.41
2017-06-10T06:26:03.639Z,20.58
2017-06-10T06:26:44.201Z,20.84
2017-06-10T06:27:24.631Z,20.97
2017-06-10T06:28:05.141Z,21.17
2017-06-10T06:28:45.599Z,21.5
2017-06-10T06:29:26.068Z,21.99
2017-06-10T06:30:06.537Z,22.36
2017-06-10T06:30:47.036Z,22.52
2017-06-10T06:31:27.510Z,22.68
2017-06-10T06:32:07.935Z,22.68
2017-06-10T06:32:48.378Z,22.61
2017-06-10T06:34:25.746Z,23.04
2017-06-10T06:35:06.211Z,23.31
2017-06-10T06:35:46.663Z,23.42
2017-06-10T06:36:27.136Z,23.39
2017-06-10T06:37:07.601Z,23.4
2017-06-10T06:37:48.045Z,23.2
2017-06-10T06:38:28.523Z,23.46
2017-06-10T06:39:09.759Z,23.28
2017-06-10T06:39:50.216Z,23.63
2017-06-10T06:42:02.937Z,23.75
2017-06-10T06:42:43.408Z,23.51
2017-06-10T06:43:23.893Z,23.72
2017-06-10T06:44:04.384Z,23.91
2017-06-10T06:44:44.854Z,23.93
2017-06-10T06:45:25.320Z,24.24
2017-06-10T06:46:05.816Z,24.4
2017-06-10T06:46:46.304Z,24.24
2017-06-10T06:47:26.768Z,24.47
2017-06-10T06:48:07.234Z,24.5
2017-06-10T06:48:47.742Z,24.77
2017-06-10T06:49:28.207Z,24.78
2017-06-10T06:50:08.673Z,25.02
2017-06-10T06:50:49.157Z,25.45
2017-06-10T06:51:29.612Z,25.27
2017-06-10T06:52:10.082Z,25.1
2017-06-10T06:52:50.548Z,24.55
2017-06-10T06:53:30.977Z,24.08
2017-06-10T06:54:11.460Z,24.2
2017-06-10T06:54:51.923Z,24.09
2017-06-10T06:55:32.404Z,24.21
2017-06-10T06:56:12.891Z,24.32
2017-06-10T06:56:53.378Z,24.4
2017-06-10T06:57:33.836Z,24.2
2017-06-10T06:58:14.311Z,24.34
2017-06-10T06:58:54.808Z,24.35
2017-06-10T06:59:35.290Z,24.57
2017-06-10T07:00:15.786Z,24.81
2017-06-10T07:00:56.244Z,24.93
2017-06-10T07:01:36.710Z,25.09
2017-06-10T07:02:17.170Z,25.1
2017-06-10T07:02:57.625Z,25.43
2017-06-10T07:03:38.066Z,25.62
2017-06-10T07:04:18.508Z,25.82
2017-06-10T07:04:58.945Z,25.88
2017-06-10T07:05:39.432Z,26.3
2017-06-10T07:06:19.909Z,26.18
2017-06-10T07:07:00.389Z,26.09
2017-06-10T07:07:40.890Z,26.32
2017-06-10T07:08:21.877Z,25.91
2017-06-10T07:10:14.520Z,26.73
2017-06-10T07:10:54.992Z,26.76
2017-06-10T07:11:36.034Z,26.54
2017-06-10T07:12:16.526Z,26.44
2017-06-10T07:12:56.988Z,25.46
2017-06-10T07:13:37.473Z,25.52
2017-06-10T07:14:18.772Z,25.97
2017-06-10T07:14:59.223Z,26.21
2017-06-10T07:15:39.706Z,26.15
2017-06-10T07:16:20.200Z,25.61
2017-06-10T07:17:00.688Z,25.25
2017-06-10T07:17:41.183Z,24.93
2017-06-10T07:18:21.643Z,25.2
2017-06-10T07:19:02.114Z,25.46
2017-06-10T07:19:42.589Z,24.45
2017-06-10T07:20:23.036Z,24.61
2017-06-10T07:21:03.486Z,25.32
2017-06-10T07:21:43.951Z,25.64
2017-06-10T07:22:24.422Z,25.99
2017-06-10T07:23:04.876Z,26.37
2017-06-10T07:23:45.362Z,26.77
2017-06-10T07:25:58.153Z,26.63
2017-06-10T07:26:38.675Z,26.84
2017-06-10T07:27:19.125Z,25.51
2017-06-10T07:27:59.601Z,24.76
2017-06-10T07:28:40.093Z,25.18
2017-06-10T07:29:20.614Z,25.57
2017-06-10T07:30:01.069Z,25.92
2017-06-10T07:30:41.570Z,26.57
2017-06-10T07:31:22.060Z,27.02
2017-06-10T07:32:02.550Z,27.29
2017-06-10T07:32:43.060Z,27.46
2017-06-10T07:33:24.337Z,27.67
2017-06-10T07:34:04.840Z,28.02
2017-06-10T07:34:45.317Z,27.78
2017-06-10T07:35:25.800Z,27.87
2017-06-10T07:36:06.330Z,28.34
2017-06-10T07:36:46.751Z,27.19
2017-06-10T07:37:27.234Z,27.25
2017-06-10T07:38:07.731Z,26.84
2017-06-10T07:38:48.198Z,26.32
2017-06-10T07:39:28.738Z,26.01
2017-06-10T07:40:09.171Z,26.06
2017-06-10T07:40:49.670Z,26.77
2017-06-10T07:41:30.175Z,27.47
2017-06-10T07:42:10.661Z,27.96
2017-06-10T07:42:51.141Z,28.29
2017-06-10T07:43:31.641Z,28.17
2017-06-10T07:44:12.115Z,28.73
2017-06-10T07:44:52.605Z,28.93
2017-06-10T07:45:33.125Z,29.11
2017-06-10T07:46:13.635Z,28.64
2017-06-10T07:46:54.121Z,29.19
2017-06-10T07:47:34.657Z,29.41
2017-06-10T07:48:15.154Z,29.74
2017-06-10T07:48:55.642Z,30.01
2017-06-10T07:49:36.142Z,30.2
2017-06-10T07:50:16.634Z,29.08
2017-06-10T07:50:57.138Z,29.14
2017-06-10T07:51:37.621Z,28.64
2017-06-10T07:52:18.127Z,28.85
2017-06-10T07:52:58.625Z,29.02
2017-06-10T07:53:39.110Z,28.88
2017-06-10T07:54:19.604Z,28.98
2017-06-10T07:55:00.105Z,28.22
2017-06-10T07:55:40.595Z,28.3
2017-06-10T07:56:21.069Z,28.06
2017-06-10T07:57:01.565Z,28.54
2017-06-10T07:57:42.081Z,29.27
2017-06-10T07:58:22.625Z,29.45
2017-06-10T07:59:03.060Z,30.05
2017-06-10T07:59:43.547Z,30.2
2017-06-10T08:00:24.044Z,30.19
2017-06-10T08:01:04.541Z,30.69
2017-06-10T08:01:45.036Z,30.99
2017-06-10T08:02:25.524Z,31.07
2017-06-10T08:03:06.057Z,30.76
2017-06-10T08:03:46.515Z,30.58
2017-06-10T08:04:27.000Z,30.65
2017-06-10T08:05:07.487Z,30.69
2017-06-10T08:05:48.000Z,30.69
2017-06-10T08:06:28.509Z,31.14
2017-06-10T08:07:08.994Z,31.34
2017-06-10T08:07:49.490Z,31.36
2017-06-10T08:08:30.523Z,31.73
2017-06-10T08:09:11.018Z,31.8
2017-06-10T08:09:51.523Z,31.96
2017-06-10T08:10:32.025Z,32
2017-06-10T08:11:12.528Z,31.51
2017-06-10T08:11:52.959Z,31.34
2017-06-10T08:12:33.403Z,30.77
2017-06-10T08:13:14.523Z,30.97
2017-06-10T08:13:54.981Z,30.76
2017-06-10T08:14:35.491Z,30.94
2017-06-10T08:15:15.968Z,30.95
2017-06-10T08:17:03.472Z,31.02
2017-06-10T08:17:43.940Z,30.55
2017-06-10T08:18:24.437Z,29.89
2017-06-10T08:19:04.863Z,28.02
2017-06-10T08:19:45.313Z,27.75
2017-06-10T08:20:25.768Z,27.32
2017-06-10T08:21:06.238Z,27.57
2017-06-10T08:21:46.694Z,27.96
2017-06-10T08:22:27.170Z,27.54
2017-06-10T08:23:07.652Z,26.97
2017-06-10T08:23:48.122Z,26.36
2017-06-10T08:24:28.615Z,26.23
2017-06-10T08:25:09.104Z,26.29
2017-06-10T08:25:49.643Z,26.29
2017-06-10T08:26:30.092Z,25.65
2017-06-10T08:27:10.547Z,26.18
2017-06-10T08:27:50.980Z,26.8
2017-06-10T08:30:03.700Z,27.57
2017-06-10T08:30:44.239Z,28.48
2017-06-10T08:31:24.684Z,28.66
2017-06-10T08:32:05.147Z,29.28
2017-06-10T08:32:45.632Z,29.37
2017-06-10T08:33:26.121Z,29.92
2017-06-10T08:34:06.630Z,30.2
2017-06-10T08:34:47.095Z,30.51
2017-06-10T08:35:27.558Z,30.51
2017-06-10T08:36:08.061Z,30.97
2017-06-10T08:36:48.530Z,31.16
2017-06-10T08:39:02.161Z,29.27
2017-06-10T08:39:42.652Z,30.05
2017-06-10T08:40:24.028Z,29.71
2017-06-10T08:41:04.482Z,29.02
2017-06-10T08:41:44.935Z,28.96
2017-06-10T08:42:25.394Z,29.42
2017-06-10T08:43:05.863Z,28.24
2017-06-10T08:44:53.350Z,28.77
2017-06-10T08:45:33.814Z,29.36
2017-06-10T08:46:14.305Z,29.43
2017-06-10T08:46:54.791Z,30.23
2017-06-10T08:47:35.240Z,30.95
2017-06-10T08:48:15.724Z,31.48
2017-06-10T08:48:56.181Z,31.76
2017-06-10T08:49:36.636Z,31.68
2017-06-10T08:50:17.112Z,32.11
2017-06-10T08:50:57.617Z,31.51
2017-06-10T08:51:38.075Z,30.27
2017-06-10T08:52:18.535Z,29.9
2017-06-10T08:52:59.005Z,29.7
2017-06-10T08:53:39.467Z,30.26
2017-06-10T08:54:19.894Z,30.98
2017-06-10T08:55:00.349Z,31.01
2017-06-10T08:55:40.850Z,31.29
2017-06-10T08:56:21.333Z,32.18
2017-06-10T08:57:01.811Z,32.57
2017-06-10T08:57:42.298Z,32.94
2017-06-10T08:58:22.770Z,32.51
2017-06-10T08:59:03.228Z,31.38
2017-06-10T08:59:43.697Z,32.18
2017-06-10T09:01:56.526Z,32.5
2017-06-10T09:02:36.892Z,30.54
2017-06-10T09:03:17.392Z,29.92
2017-06-10T09:03:57.864Z,30.42
2017-06-10T09:04:38.372Z,30.88
2017-06-10T09:05:18.868Z,31.5
2017-06-10T09:05:59.366Z,31.25
2017-06-10T09:06:39.861Z,31.63
2017-06-10T09:07:20.371Z,31.61
2017-06-10T09:08:00.830Z,32.13
2017-06-10T09:08:41.331Z,32.77
2017-06-10T09:09:21.803Z,33.16
2017-06-10T09:10:02.292Z,33.42
2017-06-10T09:10:42.769Z,33.14
2017-06-10T09:11:23.259Z,33.14
2017-06-10T09:12:03.707Z,32.87
2017-06-10T09:12:44.186Z,32.04
2017-06-10T09:13:24.691Z,31.66
2017-06-10T09:14:05.173Z,30.82
2017-06-10T09:14:45.672Z,30.38
2017-06-10T09:15:26.178Z,29.98
2017-06-10T09:16:06.665Z,29.26
2017-06-10T09:16:47.135Z,28.39
2017-06-10T09:17:27.645Z,27.78
2017-06-10T09:18:08.124Z,27.06
2017-06-10T09:18:48.610Z,26.32
2017-06-10T09:19:29.060Z,26.37
2017-06-10T09:20:09.508Z,27.19
2017-06-10T09:22:02.127Z,29.57
2017-06-10T09:22:42.564Z,30.58
2017-06-10T09:23:23.056Z,31.57
2017-06-10T09:24:03.546Z,32.1
2017-06-10T09:24:44.036Z,33.37
2017-06-10T09:25:24.524Z,32.51
2017-06-10T09:26:05.000Z,33.12
2017-06-10T09:26:45.550Z,34.35
2017-06-10T09:27:25.966Z,34.78
2017-06-10T09:28:06.434Z,35.07
2017-06-10T09:29:59.090Z,34.73
2017-06-10T09:30:39.491Z,35.28
2017-06-10T09:31:19.984Z,34.75
2017-06-10T09:32:00.503Z,34.61
2017-06-10T09:32:41.006Z,34.56
2017-06-10T09:33:21.483Z,33.88
2017-06-10T09:34:01.969Z,33.87